sensor_id;sensor_type;location;lat;lon;timestamp;pressure;altitude;pressure_sealevel;temperature;humidity
15817;BME280;8009;50.070;8.232;2022-09-09T00:01:07;99473.88;;;17.66;74.55
15817;BME280;8009;50.070;8.232;2022-09-09T00:03:41;99473.63;;;18.09;76.49
15817;BME280;8009;50.070;8.232;2022-09-09T00:06:21;99474.78;;;18.45;73.64
15817;BME280;8009;50.070;8.232;2022-09-09T00:08:59;99469.56;;;18.27;74.96
15817;BME280;8009;50.070;8.232;2022-09-09T00:11:34;99474.63;;;19.01;73.33
15817;BME280;8009;50.070;8.232;2022-09-09T00:14:11;99474.78;;;17.34;77.28
15817;BME280;8009;50.070;8.232;2022-09-09T00:16:47;99466.88;;;18.50;74.46
15817;BME280;8009;50.070;8.232;2022-09-09T00:19:23;99466.69;;;18.29;75.48
15817;BME280;8009;50.070;8.232;2022-09-09T00:22:07;99469.66;;;18.42;73.60
15817;BME280;8009;50.070;8.232;2022-09-09T00:24:43;99472.47;;;17.95;74.08
15817;BME280;8009;50.070;8.232;2022-09-09T00:27:19;99475.28;;;17.46;74.64
15817;BME280;8009;50.070;8.232;2022-09-09T00:29:54;99476.00;;;18.03;75.12
15817;BME280;8009;50.070;8.232;2022-09-09T00:32:28;99468.00;;;18.02;72.41
15817;BME280;8009;50.070;8.232;2022-09-09T00:35:02;99467.97;;;17.30;74.16
15817;BME280;8009;50.070;8.232;2022-09-09T00:37:34;99470.72;;;17.30;77.28
15817;BME280;8009;50.070;8.232;2022-09-09T00:40:15;99458.19;;;17.76;73.51
15817;BME280;8009;50.070;8.232;2022-09-09T00:42:54;99467.13;;;17.29;76.00
15817;BME280;8009;50.070;8.232;2022-09-09T00:45:41;99471.22;;;17.09;76.57
15817;BME280;8009;50.070;8.232;2022-09-09T00:48:14;99471.00;;;16.62;77.97
15817;BME280;8009;50.070;8.232;2022-09-09T00:50:50;99469.69;;;16.15;79.88
15817;BME280;8009;50.070;8.232;2022-09-09T00:53:38;99466.97;;;17.15;81.23
15817;BME280;8009;50.070;8.232;2022-09-09T00:56:12;99469.13;;;17.60;75.90
15817;BME280;8009;50.070;8.232;2022-09-09T00:58:42;99474.13;;;16.91;79.95
15817;BME280;8009;50.070;8.232;2022-09-09T01:01:15;99462.16;;;17.49;78.04
15817;BME280;8009;50.070;8.232;2022-09-09T01:03:49;99463.38;;;17.22;75.55
15817;BME280;8009;50.070;8.232;2022-09-09T01:06:25;99464.41;;;16.89;76.14
15817;BME280;8009;50.070;8.232;2022-09-09T01:09:18;99468.72;;;16.41;78.24
15817;BME280;8009;50.070;8.232;2022-09-09T01:11:55;99465.94;;;18.04;77.91
15817;BME280;8009;50.070;8.232;2022-09-09T01:14:42;99463.91;;;17.26;75.58
15817;BME280;8009;50.070;8.232;2022-09-09T01:17:15;99466.97;;;17.23;74.70
15817;BME280;8009;50.070;8.232;2022-09-09T01:20:02;99464.94;;;17.97;77.35
15817;BME280;8009;50.070;8.232;2022-09-09T01:22:35;99468.84;;;17.22;75.96
15817;BME280;8009;50.070;8.232;2022-09-09T01:25:21;99458.78;;;17.15;74.79
15817;BME280;8009;50.070;8.232;2022-09-09T01:27:55;99464.31;;;17.70;74.29
15817;BME280;8009;50.070;8.232;2022-09-09T01:30:26;99462.78;;;16.37;79.41
15817;BME280;8009;50.070;8.232;2022-09-09T01:32:56;99463.47;;;16.47;77.60
15817;BME280;8009;50.070;8.232;2022-09-09T01:35:39;99470.34;;;17.41;79.39
15817;BME280;8009;50.070;8.232;2022-09-09T01:38:08;99455.81;;;17.57;73.19
15817;BME280;8009;50.070;8.232;2022-09-09T01:40:37;99456.91;;;17.07;78.21
15817;BME280;8009;50.070;8.232;2022-09-09T01:43:09;99463.47;;;16.55;79.50
15817;BME280;8009;50.070;8.232;2022-09-09T01:45:39;99457.22;;;17.37;79.69
15817;BME280;8009;50.070;8.232;2022-09-09T01:48:09;99465.03;;;17.64;75.74
15817;BME280;8009;50.070;8.232;2022-09-09T01:50:37;99466.19;;;16.55;75.86
15817;BME280;8009;50.070;8.232;2022-09-09T01:53:06;99468.00;;;16.22;76.85
15817;BME280;8009;50.070;8.232;2022-09-09T01:55:38;99465.44;;;16.29;80.22
15817;BME280;8009;50.070;8.232;2022-09-09T01:58:18;99467.56;;;17.82;77.96
15817;BME280;8009;50.070;8.232;2022-09-09T02:00:54;99463.41;;;18.34;76.26
15817;BME280;8009;50.070;8.232;2022-09-09T02:03:27;99472.78;;;16.28;76.20
15817;BME280;8009;50.070;8.232;2022-09-09T02:06:02;99475.00;;;15.91;78.65
15817;BME280;8009;50.070;8.232;2022-09-09T02:08:40;99476.56;;;16.52;78.91
15817;BME280;8009;50.070;8.232;2022-09-09T02:11:13;99469.13;;;16.03;78.91
15817;BME280;8009;50.070;8.232;2022-09-09T02:13:47;99473.09;;;15.83;80.16
15817;BME280;8009;50.070;8.232;2022-09-09T02:16:20;99484.63;;;16.70;83.19
15817;BME280;8009;50.070;8.232;2022-09-09T02:18:52;99481.94;;;16.19;77.33
15817;BME280;8009;50.070;8.232;2022-09-09T02:21:26;99484.16;;;16.16;77.90
15817;BME280;8009;50.070;8.232;2022-09-09T02:23:58;99483.34;;;16.31;77.06
15817;BME280;8009;50.070;8.232;2022-09-09T02:26:31;99472.75;;;16.79;81.78
15817;BME280;8009;50.070;8.232;2022-09-09T02:29:06;99474.97;;;16.25;77.48
15817;BME280;8009;50.070;8.232;2022-09-09T02:31:36;99480.00;;;16.54;77.85
15817;BME280;8009;50.070;8.232;2022-09-09T02:34:08;99473.50;;;16.47;76.43
15817;BME280;8009;50.070;8.232;2022-09-09T02:36:40;99480.34;;;16.59;75.88
15817;BME280;8009;50.070;8.232;2022-09-09T02:39:11;99473.94;;;16.85;74.64
15817;BME280;8009;50.070;8.232;2022-09-09T02:41:41;99471.72;;;16.96;77.94
15817;BME280;8009;50.070;8.232;2022-09-09T02:44:14;99463.72;;;17.19;76.82
15817;BME280;8009;50.070;8.232;2022-09-09T02:46:58;99460.50;;;16.99;76.86
15817;BME280;8009;50.070;8.232;2022-09-09T02:49:33;99462.84;;;17.51;78.76
15817;BME280;8009;50.070;8.232;2022-09-09T02:52:06;99455.50;;;16.70;75.21
15817;BME280;8009;50.070;8.232;2022-09-09T02:54:38;99454.69;;;16.86;77.19
15817;BME280;8009;50.070;8.232;2022-09-09T02:57:10;99445.31;;;17.29;73.69
15817;BME280;8009;50.070;8.232;2022-09-09T02:59:43;99456.88;;;16.83;76.12
15817;BME280;8009;50.070;8.232;2022-09-09T03:02:12;99457.19;;;16.63;75.73
15817;BME280;8009;50.070;8.232;2022-09-09T03:04:41;99454.75;;;16.44;75.82
15817;BME280;8009;50.070;8.232;2022-09-09T03:07:10;99463.66;;;16.54;80.04
15817;BME280;8009;50.070;8.232;2022-09-09T03:09:38;99458.75;;;16.74;77.94
15817;BME280;8009;50.070;8.232;2022-09-09T03:12:07;99454.75;;;16.44;77.22
15817;BME280;8009;50.070;8.232;2022-09-09T03:14:36;99451.44;;;17.23;78.06
15817;BME280;8009;50.070;8.232;2022-09-09T03:17:07;99454.94;;;16.42;76.40
15817;BME280;8009;50.070;8.232;2022-09-09T03:19:35;99461.13;;;16.69;78.14
15817;BME280;8009;50.070;8.232;2022-09-09T03:22:04;99450.69;;;17.62;76.95
15817;BME280;8009;50.070;8.232;2022-09-09T03:24:32;99466.41;;;17.52;75.30
15817;BME280;8009;50.070;8.232;2022-09-09T03:27:03;99466.09;;;16.98;75.92
15817;BME280;8009;50.070;8.232;2022-09-09T03:29:31;99464.59;;;16.95;74.74
15817;BME280;8009;50.070;8.232;2022-09-09T03:31:59;99461.13;;;16.61;76.05
15817;BME280;8009;50.070;8.232;2022-09-09T03:34:33;99462.44;;;17.71;78.18
15817;BME280;8009;50.070;8.232;2022-09-09T03:37:02;99472.69;;;17.77;76.30
15817;BME280;8009;50.070;8.232;2022-09-09T03:39:31;99468.13;;;18.17;72.82
15817;BME280;8009;50.070;8.232;2022-09-09T03:41:59;99474.06;;;17.57;76.86
15817;BME280;8009;50.070;8.232;2022-09-09T03:44:29;99480.94;;;16.95;74.49
15817;BME280;8009;50.070;8.232;2022-09-09T03:46:57;99482.13;;;17.42;73.95
15817;BME280;8009;50.070;8.232;2022-09-09T03:49:26;99471.19;;;17.50;77.73
15817;BME280;8009;50.070;8.232;2022-09-09T03:51:57;99466.22;;;17.53;72.57
15817;BME280;8009;50.070;8.232;2022-09-09T03:54:26;99472.59;;;16.89;74.23
15817;BME280;8009;50.070;8.232;2022-09-09T03:56:55;99473.97;;;17.25;74.10
15817;BME280;8009;50.070;8.232;2022-09-09T03:59:23;99476.69;;;17.01;73.90
15817;BME280;8009;50.070;8.232;2022-09-09T04:01:52;99459.97;;;17.28;74.26
15817;BME280;8009;50.070;8.232;2022-09-09T04:04:22;99465.59;;;17.11;74.19
15817;BME280;8009;50.070;8.232;2022-09-09T04:06:51;99455.88;;;16.92;74.69
15817;BME280;8009;50.070;8.232;2022-09-09T04:09:23;99450.53;;;17.47;78.19
15817;BME280;8009;50.070;8.232;2022-09-09T04:11:51;99442.72;;;17.28;74.28
15817;BME280;8009;50.070;8.232;2022-09-09T04:14:20;99449.91;;;17.04;74.03
15817;BME280;8009;50.070;8.232;2022-09-09T04:16:51;99434.97;;;17.81;77.18
15817;BME280;8009;50.070;8.232;2022-09-09T04:19:19;99434.97;;;17.72;74.15
15817;BME280;8009;50.070;8.232;2022-09-09T04:21:48;99440.94;;;18.15;74.12
15817;BME280;8009;50.070;8.232;2022-09-09T04:24:17;99443.78;;;17.99;74.07
15817;BME280;8009;50.070;8.232;2022-09-09T04:26:50;99446.34;;;17.28;73.01
15817;BME280;8009;50.070;8.232;2022-09-09T04:29:18;99450.44;;;17.00;75.96
15817;BME280;8009;50.070;8.232;2022-09-09T04:31:46;99443.94;;;16.93;75.34
15817;BME280;8009;50.070;8.232;2022-09-09T04:34:15;99445.97;;;16.83;75.90
15817;BME280;8009;50.070;8.232;2022-09-09T04:36:43;99448.84;;;17.46;77.06
15817;BME280;8009;50.070;8.232;2022-09-09T04:39:12;99451.56;;;17.46;73.15
15817;BME280;8009;50.070;8.232;2022-09-09T04:41:40;99449.41;;;17.25;73.75
15817;BME280;8009;50.070;8.232;2022-09-09T04:44:11;99455.53;;;17.27;77.72
15817;BME280;8009;50.070;8.232;2022-09-09T04:46:39;99462.00;;;16.86;75.56
15817;BME280;8009;50.070;8.232;2022-09-09T04:49:08;99469.00;;;16.80;75.67
15817;BME280;8009;50.070;8.232;2022-09-09T04:51:36;99465.63;;;16.94;79.24
15817;BME280;8009;50.070;8.232;2022-09-09T04:54:05;99474.97;;;17.41;74.29
15817;BME280;8009;50.070;8.232;2022-09-09T04:56:33;99471.91;;;17.03;74.90
15817;BME280;8009;50.070;8.232;2022-09-09T04:59:01;99468.50;;;17.09;75.01
15817;BME280;8009;50.070;8.232;2022-09-09T05:01:33;99479.22;;;17.35;78.68
15817;BME280;8009;50.070;8.232;2022-09-09T05:04:01;99469.16;;;17.36;76.80
15817;BME280;8009;50.070;8.232;2022-09-09T05:06:30;99459.34;;;17.90;76.73
15817;BME280;8009;50.070;8.232;2022-09-09T05:08:59;99468.44;;;17.58;77.34
15817;BME280;8009;50.070;8.232;2022-09-09T05:11:29;99467.66;;;16.92;75.38
15817;BME280;8009;50.070;8.232;2022-09-09T05:13:57;99478.69;;;16.83;74.63
15817;BME280;8009;50.070;8.232;2022-09-09T05:16:27;99479.53;;;16.75;75.21
15817;BME280;8009;50.070;8.232;2022-09-09T05:18:58;99479.41;;;16.85;75.58
15817;BME280;8009;50.070;8.232;2022-09-09T05:21:29;99483.50;;;17.05;74.14
15817;BME280;8009;50.070;8.232;2022-09-09T05:23:57;99497.06;;;16.72;75.61
15817;BME280;8009;50.070;8.232;2022-09-09T05:26:26;99489.97;;;16.96;75.27
15817;BME280;8009;50.070;8.232;2022-09-09T05:28:55;99496.22;;;16.64;76.09
15817;BME280;8009;50.070;8.232;2022-09-09T05:31:24;99495.25;;;17.46;77.99
15817;BME280;8009;50.070;8.232;2022-09-09T05:33:53;99499.84;;;16.97;75.26
15817;BME280;8009;50.070;8.232;2022-09-09T05:36:24;99509.25;;;17.11;77.40
15817;BME280;8009;50.070;8.232;2022-09-09T05:38:53;99503.09;;;17.00;74.26
15817;BME280;8009;50.070;8.232;2022-09-09T05:41:22;99506.66;;;16.76;75.06
15817;BME280;8009;50.070;8.232;2022-09-09T05:43:51;99501.22;;;17.01;74.97
15817;BME280;8009;50.070;8.232;2022-09-09T05:46:21;99503.44;;;16.89;75.61
15817;BME280;8009;50.070;8.232;2022-09-09T05:48:50;99501.06;;;17.11;74.92
15817;BME280;8009;50.070;8.232;2022-09-09T05:51:21;99510.41;;;16.84;75.70
15817;BME280;8009;50.070;8.232;2022-09-09T05:53:52;99516.06;;;16.98;75.06
15817;BME280;8009;50.070;8.232;2022-09-09T05:56:25;99509.41;;;16.93;74.73
15817;BME280;8009;50.070;8.232;2022-09-09T05:58:55;99516.72;;;17.49;73.88
15817;BME280;8009;50.070;8.232;2022-09-09T06:01:26;99522.50;;;16.89;75.81
15817;BME280;8009;50.070;8.232;2022-09-09T06:03:56;99515.88;;;16.92;76.53
15817;BME280;8009;50.070;8.232;2022-09-09T06:06:26;99530.72;;;17.05;74.78
15817;BME280;8009;50.070;8.232;2022-09-09T06:08:57;99528.81;;;16.98;74.21
15817;BME280;8009;50.070;8.232;2022-09-09T06:11:28;99522.38;;;16.91;76.03
15817;BME280;8009;50.070;8.232;2022-09-09T06:14:00;99531.72;;;16.96;75.41
15817;BME280;8009;50.070;8.232;2022-09-09T06:16:29;99527.97;;;17.63;78.43
15817;BME280;8009;50.070;8.232;2022-09-09T06:18:59;99525.06;;;17.81;77.22
15817;BME280;8009;50.070;8.232;2022-09-09T06:21:29;99524.78;;;17.10;75.22
15817;BME280;8009;50.070;8.232;2022-09-09T06:24:01;99519.47;;;17.41;73.07
15817;BME280;8009;50.070;8.232;2022-09-09T06:26:31;99522.72;;;17.37;74.17
15817;BME280;8009;50.070;8.232;2022-09-09T06:29:03;99517.56;;;17.74;73.48
15817;BME280;8009;50.070;8.232;2022-09-09T06:31:33;99518.53;;;18.45;74.66
15817;BME280;8009;50.070;8.232;2022-09-09T06:34:04;99518.66;;;18.21;69.45
15817;BME280;8009;50.070;8.232;2022-09-09T06:36:34;99511.75;;;18.33;74.06
15817;BME280;8009;50.070;8.232;2022-09-09T06:39:06;99515.22;;;18.19;72.96
15817;BME280;8009;50.070;8.232;2022-09-09T06:41:36;99517.75;;;18.29;73.35
15817;BME280;8009;50.070;8.232;2022-09-09T06:44:05;99516.13;;;18.42;73.32
15817;BME280;8009;50.070;8.232;2022-09-09T06:46:33;99515.19;;;18.58;73.30
15817;BME280;8009;50.070;8.232;2022-09-09T06:49:02;99521.59;;;18.03;70.83
15817;BME280;8009;50.070;8.232;2022-09-09T06:51:33;99521.13;;;18.70;73.36
15817;BME280;8009;50.070;8.232;2022-09-09T06:54:05;99505.41;;;18.72;73.30
15817;BME280;8009;50.070;8.232;2022-09-09T06:56:35;99510.53;;;18.75;73.55
15817;BME280;8009;50.070;8.232;2022-09-09T06:59:06;99514.47;;;18.72;69.16
15817;BME280;8009;50.070;8.232;2022-09-09T07:01:39;99510.59;;;18.59;71.86
15817;BME280;8009;50.070;8.232;2022-09-09T07:04:09;99513.94;;;18.38;70.14
15817;BME280;8009;50.070;8.232;2022-09-09T07:06:40;99514.91;;;18.84;71.96
15817;BME280;8009;50.070;8.232;2022-09-09T07:09:14;99512.91;;;19.24;71.40
15817;BME280;8009;50.070;8.232;2022-09-09T07:11:44;99513.88;;;19.31;70.48
15817;BME280;8009;50.070;8.232;2022-09-09T07:14:16;99512.09;;;18.92;66.09
15817;BME280;8009;50.070;8.232;2022-09-09T07:16:46;99519.16;;;18.56;68.40
15817;BME280;8009;50.070;8.232;2022-09-09T07:19:14;99521.22;;;18.85;68.53
15817;BME280;8009;50.070;8.232;2022-09-09T07:21:43;99513.47;;;18.96;72.25
15817;BME280;8009;50.070;8.232;2022-09-09T07:24:39;99520.31;;;18.92;69.16
15817;BME280;8009;50.070;8.232;2022-09-09T07:27:12;99514.41;;;19.27;70.04
15817;BME280;8009;50.070;8.232;2022-09-09T07:29:40;99519.03;;;19.26;67.53
15817;BME280;8009;50.070;8.232;2022-09-09T07:32:08;99513.19;;;19.29;68.83
15817;BME280;8009;50.070;8.232;2022-09-09T07:34:37;99509.81;;;19.65;70.46
15817;BME280;8009;50.070;8.232;2022-09-09T07:37:05;99511.53;;;19.95;69.01
15817;BME280;8009;50.070;8.232;2022-09-09T07:39:39;99524.50;;;19.87;69.03
15817;BME280;8009;50.070;8.232;2022-09-09T07:42:10;99520.91;;;19.48;66.75
15817;BME280;8009;50.070;8.232;2022-09-09T07:44:40;99523.34;;;19.66;69.15
15817;BME280;8009;50.070;8.232;2022-09-09T07:47:09;99523.13;;;19.68;69.69
15817;BME280;8009;50.070;8.232;2022-09-09T07:49:37;99524.00;;;19.45;67.70
15817;BME280;8009;50.070;8.232;2022-09-09T07:52:06;99528.72;;;19.37;67.37
15817;BME280;8009;50.070;8.232;2022-09-09T07:54:34;99530.19;;;19.02;67.76
15817;BME280;8009;50.070;8.232;2022-09-09T07:57:05;99534.53;;;18.57;70.62
15817;BME280;8009;50.070;8.232;2022-09-09T07:59:35;99534.75;;;19.09;70.68
15817;BME280;8009;50.070;8.232;2022-09-09T08:02:04;99542.31;;;18.76;68.69
15817;BME280;8009;50.070;8.232;2022-09-09T08:04:32;99533.19;;;18.84;71.17
15817;BME280;8009;50.070;8.232;2022-09-09T08:07:02;99529.97;;;18.80;69.97
15817;BME280;8009;50.070;8.232;2022-09-09T08:09:31;99533.19;;;18.84;70.88
15817;BME280;8009;50.070;8.232;2022-09-09T08:11:59;99533.53;;;18.89;69.42
15817;BME280;8009;50.070;8.232;2022-09-09T08:14:42;99528.66;;;18.99;71.13
15817;BME280;8009;50.070;8.232;2022-09-09T08:17:11;99535.22;;;18.90;68.06
15817;BME280;8009;50.070;8.232;2022-09-09T08:19:39;99536.75;;;19.15;70.01
15817;BME280;8009;50.070;8.232;2022-09-09T08:22:07;99532.19;;;19.08;68.24
15817;BME280;8009;50.070;8.232;2022-09-09T08:24:36;99535.09;;;19.29;70.74
15817;BME280;8009;50.070;8.232;2022-09-09T08:27:04;99537.75;;;19.37;68.39
15817;BME280;8009;50.070;8.232;2022-09-09T08:29:33;99558.34;;;19.33;70.96
15817;BME280;8009;50.070;8.232;2022-09-09T08:32:05;99552.50;;;19.36;70.50
15817;BME280;8009;50.070;8.232;2022-09-09T08:34:34;99556.06;;;18.91;69.07
15817;BME280;8009;50.070;8.232;2022-09-09T08:37:02;99546.59;;;19.02;71.17
15817;BME280;8009;50.070;8.232;2022-09-09T08:39:31;99544.94;;;19.15;70.06
15817;BME280;8009;50.070;8.232;2022-09-09T08:42:23;99551.81;;;19.34;66.49
15817;BME280;8009;50.070;8.232;2022-09-09T08:45:09;99545.75;;;19.24;70.55
15817;BME280;8009;50.070;8.232;2022-09-09T08:47:48;99555.03;;;19.38;70.20
15817;BME280;8009;50.070;8.232;2022-09-09T08:50:24;99543.81;;;19.33;70.20
15817;BME280;8009;50.070;8.232;2022-09-09T08:52:59;99552.19;;;19.54;69.72
15817;BME280;8009;50.070;8.232;2022-09-09T08:55:37;99548.38;;;19.17;65.30
15817;BME280;8009;50.070;8.232;2022-09-09T08:58:12;99544.69;;;19.48;66.50
15817;BME280;8009;50.070;8.232;2022-09-09T09:01:01;99548.72;;;19.37;70.30
15817;BME280;8009;50.070;8.232;2022-09-09T09:03:42;99551.94;;;19.18;68.76
15817;BME280;8009;50.070;8.232;2022-09-09T09:06:24;99543.25;;;19.37;67.98
15817;BME280;8009;50.070;8.232;2022-09-09T09:09:00;99548.56;;;19.39;69.43
15817;BME280;8009;50.070;8.232;2022-09-09T09:11:35;99541.59;;;19.51;68.98
15817;BME280;8009;50.070;8.232;2022-09-09T09:14:09;99550.84;;;19.73;67.40
15817;BME280;8009;50.070;8.232;2022-09-09T09:16:43;99543.91;;;19.62;67.79
15817;BME280;8009;50.070;8.232;2022-09-09T09:19:17;99543.44;;;19.36;68.71
15817;BME280;8009;50.070;8.232;2022-09-09T09:21:51;99539.34;;;19.55;68.91
15817;BME280;8009;50.070;8.232;2022-09-09T09:24:27;99538.38;;;19.47;66.29
15817;BME280;8009;50.070;8.232;2022-09-09T09:27:01;99540.91;;;19.49;69.10
15817;BME280;8009;50.070;8.232;2022-09-09T09:29:39;99539.34;;;19.55;67.95
15817;BME280;8009;50.070;8.232;2022-09-09T09:32:13;99543.28;;;19.52;69.06
15817;BME280;8009;50.070;8.232;2022-09-09T09:34:51;99554.50;;;19.42;67.89
15817;BME280;8009;50.070;8.232;2022-09-09T09:37:27;99547.13;;;19.66;68.48
15817;BME280;8009;50.070;8.232;2022-09-09T09:39:56;99541.94;;;19.71;66.70
15817;BME280;8009;50.070;8.232;2022-09-09T09:42:35;99546.56;;;19.70;61.71
15817;BME280;8009;50.070;8.232;2022-09-09T09:45:16;99539.41;;;19.99;67.58
15817;BME280;8009;50.070;8.232;2022-09-09T09:47:58;99537.91;;;19.82;67.51
15817;BME280;8009;50.070;8.232;2022-09-09T09:50:30;99539.97;;;19.80;67.96
15817;BME280;8009;50.070;8.232;2022-09-09T09:53:02;99541.41;;;19.53;68.00
15817;BME280;8009;50.070;8.232;2022-09-09T09:55:32;99539.22;;;19.48;66.47
15817;BME280;8009;50.070;8.232;2022-09-09T09:58:03;99538.00;;;19.74;68.00
15817;BME280;8009;50.070;8.232;2022-09-09T10:00:33;99535.53;;;19.79;67.35
15817;BME280;8009;50.070;8.232;2022-09-09T10:03:14;99533.75;;;19.86;64.43
15817;BME280;8009;50.070;8.232;2022-09-09T10:05:52;99538.66;;;19.90;68.44
15817;BME280;8009;50.070;8.232;2022-09-09T10:08:22;99533.56;;;19.87;66.51
15817;BME280;8009;50.070;8.232;2022-09-09T10:11:06;99535.38;;;20.10;66.86
15817;BME280;8009;50.070;8.232;2022-09-09T10:13:51;99536.19;;;19.95;59.24
15817;BME280;8009;50.070;8.232;2022-09-09T10:16:32;99520.34;;;20.35;66.15
15817;BME280;8009;50.070;8.232;2022-09-09T10:19:05;99525.72;;;20.43;66.02
15817;BME280;8009;50.070;8.232;2022-09-09T10:21:54;99509.28;;;20.29;63.54
15817;BME280;8009;50.070;8.232;2022-09-09T10:27:51;99505.88;;;20.41;65.65
15817;BME280;8009;50.070;8.232;2022-09-09T10:30:28;99515.59;;;20.59;65.01
15817;BME280;8009;50.070;8.232;2022-09-09T10:33:06;99510.31;;;20.28;64.90
15817;BME280;8009;50.070;8.232;2022-09-09T10:35:44;99499.63;;;20.33;64.04
15817;BME280;8009;50.070;8.232;2022-09-09T10:38:23;99497.00;;;20.25;57.25
15817;BME280;8009;50.070;8.232;2022-09-09T10:41:05;99503.16;;;20.27;63.12
15817;BME280;8009;50.070;8.232;2022-09-09T10:44:09;99505.09;;;20.48;58.12
15817;BME280;8009;50.070;8.232;2022-09-09T10:46:49;99498.75;;;20.62;61.03
15817;BME280;8009;50.070;8.232;2022-09-09T10:49:31;99492.94;;;20.50;54.77
15817;BME280;8009;50.070;8.232;2022-09-09T10:52:09;99491.25;;;20.49;55.81
15817;BME280;8009;50.070;8.232;2022-09-09T10:54:55;99501.03;;;20.43;57.07
15817;BME280;8009;50.070;8.232;2022-09-09T10:57:28;99500.94;;;20.52;62.69
15817;BME280;8009;50.070;8.232;2022-09-09T11:00:04;99495.28;;;20.53;57.09
15817;BME280;8009;50.070;8.232;2022-09-09T11:02:34;99488.53;;;20.56;57.55
15817;BME280;8009;50.070;8.232;2022-09-09T11:05:14;99492.34;;;20.55;63.07
15817;BME280;8009;50.070;8.232;2022-09-09T11:07:48;99493.75;;;20.65;59.13
15817;BME280;8009;50.070;8.232;2022-09-09T11:10:25;99489.97;;;20.52;54.18
15817;BME280;8009;50.070;8.232;2022-09-09T11:13:00;99490.66;;;20.39;58.84
15817;BME280;8009;50.070;8.232;2022-09-09T11:15:38;99490.69;;;20.60;54.43
15817;BME280;8009;50.070;8.232;2022-09-09T11:18:13;99493.84;;;20.57;53.70
15817;BME280;8009;50.070;8.232;2022-09-09T11:20:43;99485.69;;;20.64;58.35
15817;BME280;8009;50.070;8.232;2022-09-09T11:23:17;99493.38;;;20.39;52.12
15817;BME280;8009;50.070;8.232;2022-09-09T11:25:55;99487.06;;;20.38;61.52
15817;BME280;8009;50.070;8.232;2022-09-09T11:28:37;99486.34;;;20.66;61.60
15817;BME280;8009;50.070;8.232;2022-09-09T11:31:24;99488.63;;;20.62;63.19
15817;BME280;8009;50.070;8.232;2022-09-09T11:34:15;99485.53;;;20.51;53.17
15817;BME280;8009;50.070;8.232;2022-09-09T11:36:56;99493.84;;;20.42;60.49
15817;BME280;8009;50.070;8.232;2022-09-09T11:40:00;99486.09;;;20.46;59.47
15817;BME280;8009;50.070;8.232;2022-09-09T11:42:38;99484.13;;;20.25;52.87
15817;BME280;8009;50.070;8.232;2022-09-09T11:45:22;99487.91;;;20.24;61.37
15817;BME280;8009;50.070;8.232;2022-09-09T11:47:54;99497.19;;;20.38;63.90
15817;BME280;8009;50.070;8.232;2022-09-09T11:50:29;99487.44;;;20.20;59.31
15817;BME280;8009;50.070;8.232;2022-09-09T11:53:20;99485.66;;;20.13;53.61
15817;BME280;8009;50.070;8.232;2022-09-09T11:56:04;99496.91;;;20.18;59.49
15817;BME280;8009;50.070;8.232;2022-09-09T11:58:42;99501.34;;;20.19;64.53
15817;BME280;8009;50.070;8.232;2022-09-09T12:07:19;99511.06;;;20.07;64.80
15817;BME280;8009;50.070;8.232;2022-09-09T12:09:54;99519.03;;;20.02;63.26
15817;BME280;8009;50.070;8.232;2022-09-09T12:12:33;99515.91;;;19.90;62.87
15817;BME280;8009;50.070;8.232;2022-09-09T12:15:25;99518.91;;;19.95;63.49
15817;BME280;8009;50.070;8.232;2022-09-09T12:17:57;99521.00;;;19.93;62.84
15817;BME280;8009;50.070;8.232;2022-09-09T12:20:32;99503.41;;;19.87;64.84
15817;BME280;8009;50.070;8.232;2022-09-09T12:23:21;99504.47;;;20.01;65.69
15817;BME280;8009;50.070;8.232;2022-09-09T12:25:58;99506.47;;;20.07;60.70
15817;BME280;8009;50.070;8.232;2022-09-09T12:28:41;99508.34;;;20.07;57.90
15817;BME280;8009;50.070;8.232;2022-09-09T12:31:17;99500.09;;;20.07;63.32
15817;BME280;8009;50.070;8.232;2022-09-09T12:33:49;99492.19;;;20.12;58.75
15817;BME280;8009;50.070;8.232;2022-09-09T12:36:20;99499.03;;;20.37;62.74
15817;BME280;8009;50.070;8.232;2022-09-09T12:38:49;99489.09;;;20.66;62.21
15817;BME280;8009;50.070;8.232;2022-09-09T12:41:19;99487.41;;;20.65;62.20
15817;BME280;8009;50.070;8.232;2022-09-09T12:43:48;99488.09;;;20.52;55.91
15817;BME280;8009;50.070;8.232;2022-09-09T12:46:29;99490.28;;;20.57;63.99
15817;BME280;8009;50.070;8.232;2022-09-09T12:49:01;99484.50;;;20.37;62.91
15817;BME280;8009;50.070;8.232;2022-09-09T12:51:32;99483.53;;;20.44;53.64
15817;BME280;8009;50.070;8.232;2022-09-09T12:54:03;99486.94;;;20.47;62.83
15817;BME280;8009;50.070;8.232;2022-09-09T12:56:32;99483.72;;;20.43;55.36
15817;BME280;8009;50.070;8.232;2022-09-09T12:59:01;99489.69;;;20.61;63.05
15817;BME280;8009;50.070;8.232;2022-09-09T13:01:33;99481.50;;;20.68;63.19
15817;BME280;8009;50.070;8.232;2022-09-09T13:04:01;99486.19;;;20.89;62.59
15817;BME280;8009;50.070;8.232;2022-09-09T13:06:31;99478.75;;;20.68;60.14
15817;BME280;8009;50.070;8.232;2022-09-09T13:09:01;99477.69;;;20.84;57.94
15817;BME280;8009;50.070;8.232;2022-09-09T13:11:33;99479.97;;;20.80;55.29
15817;BME280;8009;50.070;8.232;2022-09-09T13:14:05;99480.75;;;20.74;55.83
15817;BME280;8009;50.070;8.232;2022-09-09T13:16:36;99483.56;;;20.81;61.86
15817;BME280;8009;50.070;8.232;2022-09-09T13:19:08;99477.91;;;20.67;58.33
15817;BME280;8009;50.070;8.232;2022-09-09T13:21:39;99471.88;;;20.72;54.53
15817;BME280;8009;50.070;8.232;2022-09-09T13:24:26;99468.06;;;20.73;62.65
15817;BME280;8009;50.070;8.232;2022-09-09T13:26:56;99462.94;;;20.85;60.54
15817;BME280;8009;50.070;8.232;2022-09-09T13:29:25;99464.38;;;20.81;62.57
15817;BME280;8009;50.070;8.232;2022-09-09T13:32:03;99458.75;;;20.89;62.78
15817;BME280;8009;50.070;8.232;2022-09-09T13:34:34;99462.84;;;20.78;58.04
15817;BME280;8009;50.070;8.232;2022-09-09T13:37:04;99448.25;;;20.56;57.54
15817;BME280;8009;50.070;8.232;2022-09-09T13:39:34;99465.00;;;20.47;64.13
15817;BME280;8009;50.070;8.232;2022-09-09T13:42:05;99465.41;;;20.29;56.50
15817;BME280;8009;50.070;8.232;2022-09-09T13:44:36;99475.84;;;20.18;63.19
15817;BME280;8009;50.070;8.232;2022-09-09T13:47:18;99465.81;;;20.11;61.87
15817;BME280;8009;50.070;8.232;2022-09-09T13:49:48;99475.44;;;20.07;57.67
15817;BME280;8009;50.070;8.232;2022-09-09T13:52:18;99470.28;;;20.12;64.48